Карточка аэропорта UNWW

Внимание!
Информация на этой странице в стадии наполнения.
Если вы не увидели какой-то информации, или заметили неточность - пожалуйста сообщите нам!
Спасибо!
Команда RU-STAFF
Название аэропортаСпиченково
Название аэропорта (англ.)Spichenkovo
Превышение1023 ft. (311.8 m.)
Координаты53°48.714', 86°52.704'
Высота перехода800m
Эшелон переходаFL050
Коды ответчика5270-5277
Зона ОрВДНовосибирск РПИ (UNNT)
Данные METARUNWW 210330Z 23005MPS 9999 -SHRA SCT006 OVC026CB 14/12 Q1016 R19/290250 NOSIG RMK QFE735
Проноз погоды (TAF)UNWW 210217Z 2102/2203 18003G08MPS 8000 BKN040CB TX20/2108Z TN11/2122Z TEMPO 2102/2112 -TSRA BKN016CB BECMG 2104/2107 24007G15MPS BECMG 2112/2115 18003G08MPS
NOTAMshow/hide NOTAM
AWOS   TABLE

Информация о ВПП

ВПП Длина ВПП (м.) Покрытие Курс ВПП Частота ILS
192679Цементобетон194111.1
012679Цементобетон14 

Диспетчерские позиции

Позывной Наименование органа УВД Частота
UNWW_APPНовокузнецк-Подход118.6
UNWW_TWRНовокузнецк-Старт121.2



Спутниковое изображение